Time;durP1;ratioP1;P1;durP2;ratioP2;P2;SDS_P1;SDS_P2;PMS_P1;PMS_P2;Temp;Humidity;BMP_temperature;BMP_pressure;BME280_temperature;BME280_humidity;BME280_pressure;Samples;Min_cycle;Max_cycle;Signal;HPM_P1;HPM_P2
2022/01/20 00:00:32;;;;;;;4.23;1.97;;;;;;;;;;4998404;28;20222;-65
2022/01/20 00:03:10;;;;;;;5.73;2.00;;;;;;;;;;5005149;28;20219;-65
2022/01/20 00:28:25;;;;;;;5.63;2.63;;;;;;;;;;5026380;28;20234;-65
2022/01/20 00:31:04;;;;;;;6.80;2.17;;;;;;;;;;5023816;28;20225;-66
2022/01/20 00:33:43;;;;;;;3.83;1.80;;;;;;;;;;5018449;28;20207;-65
2022/01/20 00:39:02;;;;;;;4.40;1.83;;;;;;;;;;5034633;28;20218;-64
2022/01/20 00:41:30;;;;;;;4.47;2.03;;;;;;;;;;5026723;28;20211;-65
2022/01/20 00:44:00;;;;;;;5.20;2.00;;;;;;;;;;5023458;28;20194;-65
2022/01/20 00:46:33;;;;;;;4.93;1.90;;;;;;;;;;5020693;28;20195;-65
2022/01/20 00:49:02;;;;;;;4.43;1.87;;;;;;;;;;5034273;28;20195;-64
2022/01/20 00:51:31;;;;;;;4.23;1.70;;;;;;;;;;5027198;28;20195;-64
2022/01/20 00:54:00;;;;;;;7.10;2.20;;;;;;;;;;5022745;28;20191;-65
2022/01/20 00:56:29;;;;;;;5.13;1.97;;;;;;;;;;5031273;28;20217;-65
2022/01/20 00:58:56;;;;;;;5.30;2.40;;;;;;;;;;5027254;28;20203;-65
2022/01/20 01:01:26;;;;;;;2.97;1.53;;;;;;;;;;5022083;28;20233;-65
2022/01/20 01:03:58;;;;;;;4.37;1.90;;;;;;;;;;5016008;28;20191;-65
2022/01/20 01:09:09;;;;;;;3.27;1.67;;;;;;;;;;5028582;28;20206;-66
2022/01/20 01:11:39;;;;;;;4.53;2.00;;;;;;;;;;5023029;28;20226;-65
2022/01/20 01:14:09;;;;;;;5.27;1.90;;;;;;;;;;5025658;28;20210;-65
2022/01/20 01:22:22;;;;;;;4.07;1.60;;;;;;;;;;5027953;28;20238;-65
2022/01/20 01:25:02;;;;;;;4.73;1.90;;;;;;;;;;5023160;28;20578;-65
2022/01/20 01:27:38;;;;;;;5.20;1.93;;;;;;;;;;5025481;28;20233;-65
2022/01/20 01:33:12;;;;;;;4.00;1.83;;;;;;;;;;5018496;28;20218;-65
2022/01/20 01:35:43;;;;;;;4.20;1.60;;;;;;;;;;5037256;28;20543;-65
2022/01/20 01:40:43;;;;;;;4.23;1.70;;;;;;;;;;5030998;28;20283;-66
2022/01/20 01:43:25;;;;;;;4.97;1.83;;;;;;;;;;5024726;28;20317;-65
2022/01/20 01:46:04;;;;;;;3.70;1.63;;;;;;;;;;5025326;28;20242;-65
2022/01/20 01:48:34;;;;;;;3.97;1.67;;;;;;;;;;5027631;28;20195;-65
2022/01/20 01:51:03;;;;;;;3.80;1.90;;;;;;;;;;5024531;28;20207;-65
2022/01/20 01:53:33;;;;;;;4.40;1.63;;;;;;;;;;5026353;28;20206;-65
2022/01/20 01:56:05;;;;;;;5.10;2.00;;;;;;;;;;5022289;28;20211;-64
2022/01/20 01:58:35;;;;;;;3.87;1.60;;;;;;;;;;5026702;28;20269;-65
2022/01/20 02:01:06;;;;;;;2.93;1.40;;;;;;;;;;5025789;28;20207;-65
2022/01/20 02:03:44;;;;;;;3.70;1.77;;;;;;;;;;5023745;28;20732;-65
2022/01/20 02:20:20;;;;;;;3.33;1.70;;;;;;;;;;5025667;28;20203;-65
2022/01/20 02:22:51;;;;;;;3.60;1.70;;;;;;;;;;5026672;28;20219;-65
2022/01/20 02:25:31;;;;;;;3.23;1.63;;;;;;;;;;5029200;28;20206;-65
2022/01/20 02:28:03;;;;;;;4.80;1.70;;;;;;;;;;4987014;28;20708;-65
2022/01/20 02:30:35;;;;;;;4.03;2.00;;;;;;;;;;5001144;28;20206;-65
2022/01/20 02:33:07;;;;;;;5.10;2.17;;;;;;;;;;5010010;28;20223;-65
2022/01/20 02:35:38;;;;;;;4.70;2.00;;;;;;;;;;5007177;28;20638;-65
2022/01/20 02:38:24;;;;;;;3.30;1.87;;;;;;;;;;5010354;28;20292;-65
2022/01/20 02:46:41;;;;;;;4.23;1.57;;;;;;;;;;5022144;28;20208;-65
2022/01/20 02:49:16;;;;;;;5.10;1.50;;;;;;;;;;5008565;28;20216;-66
2022/01/20 02:51:56;;;;;;;5.60;1.90;;;;;;;;;;5009750;28;20257;-65
2022/01/20 02:54:41;;;;;;;3.90;1.47;;;;;;;;;;5005533;28;20212;-65
2022/01/20 02:57:15;;;;;;;5.13;1.70;;;;;;;;;;4991923;28;20248;-67
2022/01/20 02:59:47;;;;;;;4.13;1.60;;;;;;;;;;5005636;28;20692;-65
2022/01/20 03:02:15;;;;;;;3.20;1.57;;;;;;;;;;5013283;28;20218;-65
2022/01/20 03:04:47;;;;;;;4.60;1.53;;;;;;;;;;5009110;28;20204;-66
2022/01/20 03:07:19;;;;;;;3.43;1.60;;;;;;;;;;5012748;28;20430;-66
2022/01/20 03:09:50;;;;;;;2.87;1.50;;;;;;;;;;5006356;28;20224;-65
2022/01/20 03:12:19;;;;;;;4.17;1.90;;;;;;;;;;4993545;28;20218;-65
2022/01/20 03:14:51;;;;;;;2.67;1.60;;;;;;;;;;4996452;28;20200;-65
2022/01/20 03:17:21;;;;;;;2.67;1.27;;;;;;;;;;5009227;28;20233;-65
2022/01/20 03:19:50;;;;;;;2.70;1.60;;;;;;;;;;5001146;28;20212;-65
2022/01/20 03:22:18;;;;;;;3.90;1.40;;;;;;;;;;5005850;28;20216;-66
2022/01/20 03:24:50;;;;;;;3.77;1.50;;;;;;;;;;5009370;28;20207;-66
2022/01/20 03:27:23;;;;;;;3.87;1.60;;;;;;;;;;5008444;28;20200;-66
2022/01/20 03:29:52;;;;;;;2.87;1.50;;;;;;;;;;5024199;28;20239;-65
2022/01/20 03:32:24;;;;;;;2.97;1.47;;;;;;;;;;5028026;28;20223;-65
2022/01/20 03:34:56;;;;;;;5.70;1.57;;;;;;;;;;5028982;28;20265;-65
2022/01/20 03:37:29;;;;;;;5.53;1.70;;;;;;;;;;5030241;28;20203;-65
2022/01/20 03:39:58;;;;;;;3.20;1.57;;;;;;;;;;5024538;28;20235;-65
2022/01/20 03:42:31;;;;;;;3.37;1.40;;;;;;;;;;5031724;28;20258;-65
2022/01/20 03:45:04;;;;;;;2.33;1.17;;;;;;;;;;5028992;28;20201;-65
2022/01/20 03:47:35;;;;;;;2.53;1.23;;;;;;;;;;5034184;28;20207;-65
2022/01/20 03:50:07;;;;;;;3.67;1.67;;;;;;;;;;5030563;28;20191;-65
2022/01/20 03:52:37;;;;;;;3.83;1.93;;;;;;;;;;5034300;28;20203;-65
2022/01/20 03:55:07;;;;;;;4.53;1.40;;;;;;;;;;5029637;28;20206;-65
2022/01/20 03:57:39;;;;;;;3.67;1.20;;;;;;;;;;5033880;28;20195;-65
2022/01/20 04:00:11;;;;;;;2.23;1.00;;;;;;;;;;5031422;28;20210;-65
2022/01/20 04:02:40;;;;;;;2.60;1.00;;;;;;;;;;5030966;28;20230;-65
2022/01/20 04:05:11;;;;;;;2.87;1.23;;;;;;;;;;5029136;28;20199;-65
2022/01/20 04:07:43;;;;;;;3.90;1.47;;;;;;;;;;5005403;28;20211;-65
2022/01/20 04:10:15;;;;;;;3.30;1.50;;;;;;;;;;5037929;28;20270;-65
2022/01/20 04:12:45;;;;;;;2.63;1.50;;;;;;;;;;5029222;28;20206;-66
2022/01/20 04:15:17;;;;;;;2.77;1.50;;;;;;;;;;5037803;28;20206;-67
2022/01/20 04:17:55;;;;;;;2.87;1.50;;;;;;;;;;5022126;28;20221;-65
2022/01/20 04:20:40;;;;;;;3.67;1.40;;;;;;;;;;5027996;28;20296;-65
2022/01/20 04:23:10;;;;;;;2.13;1.20;;;;;;;;;;5014885;28;20230;-65
2022/01/20 04:25:41;;;;;;;2.97;1.30;;;;;;;;;;5017985;28;20207;-65
2022/01/20 04:28:09;;;;;;;3.83;1.50;;;;;;;;;;5021415;28;20227;-65
2022/01/20 04:30:39;;;;;;;4.20;1.47;;;;;;;;;;5006556;28;20211;-66
2022/01/20 04:33:12;;;;;;;2.50;1.33;;;;;;;;;;5022168;28;20230;-66
2022/01/20 04:35:46;;;;;;;2.77;1.40;;;;;;;;;;5013484;28;20199;-65
2022/01/20 04:38:16;;;;;;;2.00;1.10;;;;;;;;;;5007962;28;20203;-65
2022/01/20 04:40:46;;;;;;;2.27;1.60;;;;;;;;;;5007140;28;20229;-65
2022/01/20 04:43:17;;;;;;;3.73;1.40;;;;;;;;;;5006390;28;20235;-65
2022/01/20 04:46:18;;;;;;;2.47;1.20;;;;;;;;;;5010648;28;20207;-65
2022/01/20 04:57:02;;;;;;;2.43;1.10;;;;;;;;;;5003814;28;20200;-65
2022/01/20 04:57:42;;;;;;;4.00;1.00;;;;;;;;;;5003353;28;20211;-65
2022/01/20 05:00:10;;;;;;;1.97;1.00;;;;;;;;;;5010165;28;20206;-65
2022/01/20 05:02:38;;;;;;;4.10;0.87;;;;;;;;;;5014526;28;20753;-65
2022/01/20 05:05:09;;;;;;;2.77;1.00;;;;;;;;;;4998118;28;20207;-65
2022/01/20 05:07:43;;;;;;;3.17;1.30;;;;;;;;;;5006262;28;20214;-65
2022/01/20 05:10:17;;;;;;;5.07;1.73;;;;;;;;;;5010465;28;20202;-65
2022/01/20 05:15:28;;;;;;;3.43;1.30;;;;;;;;;;5006067;28;20203;-65
2022/01/20 05:17:59;;;;;;;1.87;1.10;;;;;;;;;;5008102;28;20618;-65
2022/01/20 05:20:30;;;;;;;2.83;1.17;;;;;;;;;;4989432;28;20204;-65
2022/01/20 05:22:58;;;;;;;4.33;1.10;;;;;;;;;;5015783;28;20215;-65
2022/01/20 05:25:27;;;;;;;4.73;1.37;;;;;;;;;;5003473;28;20598;-65
2022/01/20 05:27:58;;;;;;;3.03;0.97;;;;;;;;;;5011432;28;20266;-65
2022/01/20 05:30:29;;;;;;;2.73;1.10;;;;;;;;;;5006071;28;20311;-65
2022/01/20 05:33:00;;;;;;;3.03;1.27;;;;;;;;;;5003663;28;20221;-65
2022/01/20 05:35:28;;;;;;;3.97;1.70;;;;;;;;;;5025006;28;20194;-66
2022/01/20 05:38:03;;;;;;;2.03;0.90;;;;;;;;;;5031289;28;20195;-66
2022/01/20 05:40:34;;;;;;;2.67;1.13;;;;;;;;;;5020321;28;20790;-66
2022/01/20 05:43:04;;;;;;;2.23;0.83;;;;;;;;;;5019410;28;20672;-66
2022/01/20 05:45:38;;;;;;;4.30;1.20;;;;;;;;;;5021505;28;20245;-66
2022/01/20 05:48:12;;;;;;;1.83;1.00;;;;;;;;;;5023012;28;20242;-66
2022/01/20 05:50:46;;;;;;;3.27;1.37;;;;;;;;;;5024067;28;20183;-66
2022/01/20 05:53:16;;;;;;;3.30;1.30;;;;;;;;;;5030109;28;20449;-65
2022/01/20 05:55:45;;;;;;;3.50;1.30;;;;;;;;;;5017483;28;20222;-66
2022/01/20 05:58:16;;;;;;;4.27;1.43;;;;;;;;;;5023659;28;20281;-66
2022/01/20 06:00:46;;;;;;;3.00;1.20;;;;;;;;;;5022871;28;20214;-66
2022/01/20 06:03:36;;;;;;;3.20;1.40;;;;;;;;;;5025007;28;20215;-65
2022/01/20 06:06:09;;;;;;;3.57;1.40;;;;;;;;;;5024004;28;20272;-65
2022/01/20 06:08:42;;;;;;;2.70;1.17;;;;;;;;;;5012482;28;20224;-65
2022/01/20 06:11:13;;;;;;;2.73;1.23;;;;;;;;;;5013088;28;20285;-65
2022/01/20 06:13:44;;;;;;;3.70;1.50;;;;;;;;;;5024371;28;20743;-65
2022/01/20 06:16:15;;;;;;;2.50;1.10;;;;;;;;;;5022263;28;20214;-65
2022/01/20 06:18:44;;;;;;;2.37;0.90;;;;;;;;;;5023273;28;20214;-65
2022/01/20 06:21:17;;;;;;;3.77;1.30;;;;;;;;;;5031164;28;20724;-65
2022/01/20 06:23:48;;;;;;;2.27;1.13;;;;;;;;;;5024689;28;20269;-65
2022/01/20 06:26:20;;;;;;;2.73;1.00;;;;;;;;;;5016036;28;20672;-65
2022/01/20 06:28:51;;;;;;;3.43;1.30;;;;;;;;;;4885450;28;4139264;-66
2022/01/20 06:31:21;;;;;;;3.20;1.23;;;;;;;;;;5025099;28;20229;-66
2022/01/20 06:33:49;;;;;;;5.40;1.50;;;;;;;;;;5025662;28;20269;-65
2022/01/20 06:36:20;;;;;;;1.80;1.10;;;;;;;;;;5029209;28;20323;-65
2022/01/20 06:38:50;;;;;;;3.73;1.20;;;;;;;;;;5030599;28;20967;-65
2022/01/20 06:41:21;;;;;;;3.93;1.27;;;;;;;;;;5029756;28;20221;-65
2022/01/20 06:43:53;;;;;;;4.00;1.40;;;;;;;;;;5028117;28;20250;-65
2022/01/20 06:46:23;;;;;;;5.53;1.63;;;;;;;;;;5033365;28;20202;-65
2022/01/20 06:48:53;;;;;;;3.37;1.40;;;;;;;;;;5027952;28;20187;-64
2022/01/20 06:51:25;;;;;;;2.80;1.10;;;;;;;;;;5020811;28;20209;-64
2022/01/20 06:53:54;;;;;;;2.47;1.27;;;;;;;;;;5023967;28;20680;-64
2022/01/20 06:56:26;;;;;;;2.70;1.00;;;;;;;;;;5023182;28;20203;-64
2022/01/20 06:59:09;;;;;;;3.57;1.47;;;;;;;;;;5030648;28;20209;-64
2022/01/20 07:01:41;;;;;;;3.53;1.10;;;;;;;;;;5027499;28;20203;-64
2022/01/20 07:04:15;;;;;;;4.77;1.30;;;;;;;;;;5029299;28;20215;-64
2022/01/20 07:06:47;;;;;;;2.97;1.03;;;;;;;;;;5029041;28;20632;-65
2022/01/20 07:09:18;;;;;;;2.37;1.10;;;;;;;;;;5029569;28;20211;-65
2022/01/20 07:11:49;;;;;;;10.50;2.43;;;;;;;;;;5018990;28;20800;-65
2022/01/20 07:14:21;;;;;;;17.03;4.10;;;;;;;;;;5028892;28;20260;-68
2022/01/20 07:16:53;;;;;;;12.77;3.17;;;;;;;;;;5029011;28;20241;-67
2022/01/20 07:19:23;;;;;;;14.90;3.40;;;;;;;;;;5026700;28;20446;-68
2022/01/20 07:21:51;;;;;;;9.07;2.60;;;;;;;;;;5010654;28;20213;-66
2022/01/20 07:24:24;;;;;;;12.23;3.47;;;;;;;;;;5016210;28;20230;-65
2022/01/20 07:26:57;;;;;;;13.07;2.83;;;;;;;;;;5035214;28;20206;-66
2022/01/20 07:29:29;;;;;;;12.07;3.17;;;;;;;;;;5027465;28;20247;-67
2022/01/20 07:32:10;;;;;;;7.70;2.90;;;;;;;;;;5035656;28;20206;-67
2022/01/20 07:34:43;;;;;;;6.80;2.77;;;;;;;;;;5027133;28;20282;-65
2022/01/20 07:37:15;;;;;;;6.83;2.47;;;;;;;;;;5034737;28;20214;-65
2022/01/20 07:39:45;;;;;;;5.40;2.70;;;;;;;;;;5022877;28;20527;-65
2022/01/20 07:42:17;;;;;;;9.37;2.83;;;;;;;;;;5027669;28;20223;-65
2022/01/20 07:44:48;;;;;;;5.67;2.50;;;;;;;;;;5021663;28;20230;-66
2022/01/20 07:47:18;;;;;;;10.27;2.93;;;;;;;;;;5030017;28;20207;-67
2022/01/20 07:49:46;;;;;;;3.70;2.10;;;;;;;;;;5025400;28;20282;-67
2022/01/20 07:52:18;;;;;;;6.50;2.60;;;;;;;;;;5026878;28;20289;-67
2022/01/20 07:54:48;;;;;;;8.70;2.80;;;;;;;;;;5026928;28;20211;-66
2022/01/20 07:57:21;;;;;;;6.13;2.53;;;;;;;;;;5027914;28;20222;-66
2022/01/20 07:59:54;;;;;;;6.77;2.53;;;;;;;;;;5029339;28;20199;-66
2022/01/20 08:02:25;;;;;;;6.23;2.27;;;;;;;;;;5020017;28;20218;-69
2022/01/20 08:04:54;;;;;;;6.90;2.30;;;;;;;;;;5028887;28;20238;-69
2022/01/20 08:07:27;;;;;;;5.83;2.13;;;;;;;;;;5030007;28;20207;-67
2022/01/20 08:09:58;;;;;;;3.90;1.80;;;;;;;;;;5025783;28;20282;-68
2022/01/20 08:12:28;;;;;;;5.03;2.20;;;;;;;;;;5023300;28;20199;-69
2022/01/20 08:15:00;;;;;;;4.17;1.93;;;;;;;;;;5008496;28;20219;-68
2022/01/20 08:17:31;;;;;;;3.97;1.80;;;;;;;;;;5020057;28;20222;-67
2022/01/20 08:20:02;;;;;;;5.53;2.30;;;;;;;;;;5016323;28;20211;-68
2022/01/20 08:22:34;;;;;;;3.33;1.70;;;;;;;;;;5022299;28;20383;-66
2022/01/20 08:25:11;;;;;;;4.23;2.10;;;;;;;;;;5011483;28;20741;-66
2022/01/20 08:27:43;;;;;;;4.47;1.87;;;;;;;;;;5016662;28;20230;-67
2022/01/20 08:30:13;;;;;;;4.77;2.00;;;;;;;;;;4998462;28;20244;-66
2022/01/20 08:32:45;;;;;;;4.50;1.90;;;;;;;;;;4997061;28;20685;-67
2022/01/20 08:35:16;;;;;;;2.97;1.53;;;;;;;;;;4991217;28;20201;-68
2022/01/20 08:37:45;;;;;;;4.03;1.87;;;;;;;;;;4989028;28;20624;-68
2022/01/20 08:40:22;;;;;;;3.43;1.83;;;;;;;;;;4984188;28;20199;-67
2022/01/20 08:42:52;;;;;;;3.30;1.63;;;;;;;;;;4994896;28;20222;-68
2022/01/20 08:45:26;;;;;;;3.93;1.70;;;;;;;;;;5008204;28;20215;-65
2022/01/20 08:47:59;;;;;;;3.60;1.97;;;;;;;;;;5003817;28;20215;-66
2022/01/20 08:50:43;;;;;;;3.33;1.50;;;;;;;;;;5001531;28;20250;-69
2022/01/20 08:53:16;;;;;;;4.00;1.80;;;;;;;;;;5013190;28;20199;-70
2022/01/20 08:55:46;;;;;;;4.80;1.80;;;;;;;;;;5000867;28;20208;-69
2022/01/20 08:58:15;;;;;;;2.47;1.57;;;;;;;;;;5008062;28;20564;-67
2022/01/20 09:00:48;;;;;;;3.73;1.67;;;;;;;;;;5006075;28;20196;-68
2022/01/20 09:03:17;;;;;;;3.43;1.60;;;;;;;;;;5007375;28;20638;-67
2022/01/20 09:05:47;;;;;;;3.40;1.57;;;;;;;;;;4999616;28;20236;-69
2022/01/20 09:08:22;;;;;;;2.47;1.53;;;;;;;;;;5013929;28;20206;-68
2022/01/20 09:10:55;;;;;;;3.53;1.67;;;;;;;;;;5007056;28;20196;-69
2022/01/20 09:16:18;;;;;;;4.00;1.80;;;;;;;;;;4992918;28;20207;-68
2022/01/20 09:18:51;;;;;;;3.60;1.83;;;;;;;;;;5014315;28;20211;-67
2022/01/20 09:21:23;;;;;;;3.03;1.57;;;;;;;;;;5011641;28;20220;-67
2022/01/20 09:23:52;;;;;;;3.07;1.70;;;;;;;;;;5000688;28;20219;-68
2022/01/20 09:26:23;;;;;;;4.03;1.30;;;;;;;;;;5006535;28;20195;-68
2022/01/20 09:28:56;;;;;;;4.40;1.50;;;;;;;;;;5018008;28;20223;-68
2022/01/20 09:31:37;;;;;;;3.03;1.53;;;;;;;;;;5020785;28;20269;-68
2022/01/20 09:34:09;;;;;;;2.37;1.30;;;;;;;;;;5023468;28;20218;-68
2022/01/20 09:36:45;;;;;;;3.17;1.63;;;;;;;;;;5025438;28;20525;-67
2022/01/20 09:39:14;;;;;;;2.10;1.20;;;;;;;;;;5023560;28;20207;-66
2022/01/20 09:41:43;;;;;;;4.60;1.53;;;;;;;;;;5002717;28;20720;-66
2022/01/20 09:44:14;;;;;;;3.13;1.53;;;;;;;;;;5006772;28;20222;-67
2022/01/20 09:46:44;;;;;;;2.27;1.50;;;;;;;;;;5009695;28;20210;-68
2022/01/20 09:49:16;;;;;;;2.17;1.20;;;;;;;;;;5030228;28;20199;-68
2022/01/20 09:51:51;;;;;;;2.43;1.40;;;;;;;;;;5022890;28;20226;-68
2022/01/20 09:54:21;;;;;;;3.23;1.37;;;;;;;;;;5022649;28;20647;-69
2022/01/20 09:56:52;;;;;;;3.03;1.40;;;;;;;;;;5028784;28;20829;-67
2022/01/20 09:59:26;;;;;;;4.70;1.40;;;;;;;;;;5031009;28;20206;-67
2022/01/20 10:01:58;;;;;;;6.20;1.53;;;;;;;;;;5024149;28;20206;-68
2022/01/20 10:04:38;;;;;;;2.63;1.60;;;;;;;;;;5015636;28;20202;-70
2022/01/20 10:07:13;;;;;;;3.77;1.40;;;;;;;;;;5008048;28;20202;-70
2022/01/20 10:09:49;;;;;;;3.07;1.67;;;;;;;;;;5003908;28;20274;-69
2022/01/20 10:12:19;;;;;;;2.97;1.00;;;;;;;;;;5025829;28;20233;-69
2022/01/20 10:14:57;;;;;;;2.00;1.40;;;;;;;;;;5025626;28;20199;-69
2022/01/20 10:17:33;;;;;;;2.20;1.40;;;;;;;;;;5024356;28;20211;-71
2022/01/20 10:20:05;;;;;;;2.23;1.40;;;;;;;;;;5023125;28;20211;-71
2022/01/20 10:22:41;;;;;;;2.63;1.83;;;;;;;;;;5024452;28;20250;-69
2022/01/20 10:25:14;;;;;;;2.40;1.30;;;;;;;;;;5038282;28;20227;-69
2022/01/20 10:27:50;;;;;;;2.20;1.30;;;;;;;;;;5032799;28;20561;-69
2022/01/20 10:30:25;;;;;;;2.83;1.57;;;;;;;;;;5005780;28;20606;-69
2022/01/20 10:33:02;;;;;;;4.10;1.43;;;;;;;;;;5019167;28;20210;-70
2022/01/20 10:35:34;;;;;;;4.40;1.57;;;;;;;;;;5007624;28;20250;-68
2022/01/20 10:38:14;;;;;;;2.87;1.43;;;;;;;;;;5006874;28;20206;-68
2022/01/20 10:40:54;;;;;;;2.83;1.43;;;;;;;;;;5000524;28;20223;-68
2022/01/20 10:43:27;;;;;;;3.40;1.43;;;;;;;;;;5002438;28;20226;-68
2022/01/20 10:46:11;;;;;;;3.47;1.30;;;;;;;;;;5015587;28;20214;-69
2022/01/20 10:48:41;;;;;;;2.87;1.40;;;;;;;;;;5005658;28;20188;-69
2022/01/20 10:51:34;;;;;;;3.30;1.27;;;;;;;;;;4985924;28;20226;-69
2022/01/20 10:54:13;;;;;;;2.37;1.50;;;;;;;;;;5009589;28;20212;-69
2022/01/20 10:56:48;;;;;;;2.67;1.10;;;;;;;;;;5003581;28;20693;-69
2022/01/20 10:59:35;;;;;;;2.73;1.60;;;;;;;;;;5010665;28;20207;-67
2022/01/20 11:02:22;;;;;;;3.27;1.40;;;;;;;;;;5010694;28;20647;-69
2022/01/20 11:05:06;;;;;;;3.07;1.37;;;;;;;;;;5009306;28;20212;-69
2022/01/20 11:07:42;;;;;;;2.83;1.37;;;;;;;;;;4989222;28;20278;-67
2022/01/20 11:10:11;;;;;;;2.80;1.60;;;;;;;;;;4996434;28;20226;-67
2022/01/20 11:12:43;;;;;;;3.20;1.37;;;;;;;;;;5008996;28;20211;-69
2022/01/20 11:15:18;;;;;;;3.83;1.67;;;;;;;;;;5013628;28;20214;-68
2022/01/20 11:17:57;;;;;;;3.43;1.37;;;;;;;;;;5017940;28;20214;-69
2022/01/20 11:20:28;;;;;;;2.53;1.30;;;;;;;;;;5012857;28;20680;-69
2022/01/20 11:23:07;;;;;;;3.47;1.53;;;;;;;;;;5017598;28;20208;-69
2022/01/20 11:25:46;;;;;;;3.23;1.67;;;;;;;;;;5022051;28;20242;-67
2022/01/20 11:28:17;;;;;;;3.27;1.17;;;;;;;;;;5012395;28;20234;-67
2022/01/20 11:31:05;;;;;;;2.43;1.30;;;;;;;;;;5030982;28;20194;-68
2022/01/20 11:33:46;;;;;;;4.00;1.50;;;;;;;;;;5031862;28;20218;-68
2022/01/20 11:36:27;;;;;;;2.93;1.40;;;;;;;;;;5029378;28;20245;-68
2022/01/20 11:39:20;;;;;;;5.07;1.70;;;;;;;;;;5030778;28;20337;-66
2022/01/20 11:41:53;;;;;;;2.50;1.37;;;;;;;;;;5018818;28;20230;-66
2022/01/20 11:44:32;;;;;;;3.20;1.73;;;;;;;;;;5034954;28;20586;-66
2022/01/20 11:47:09;;;;;;;3.20;1.57;;;;;;;;;;5031954;28;20205;-66
2022/01/20 11:49:43;;;;;;;3.87;2.03;;;;;;;;;;5028836;28;20195;-65
2022/01/20 11:52:28;;;;;;;2.73;1.23;;;;;;;;;;5010854;28;20202;-66
2022/01/20 11:55:17;;;;;;;3.80;1.90;;;;;;;;;;5012919;28;20353;-67
2022/01/20 11:57:56;;;;;;;4.67;1.40;;;;;;;;;;5027111;28;20210;-67
2022/01/20 12:00:29;;;;;;;3.37;1.77;;;;;;;;;;5026180;28;20305;-65
2022/01/20 12:02:58;;;;;;;4.50;1.40;;;;;;;;;;5026414;28;20206;-65
2022/01/20 12:05:33;;;;;;;10.30;1.53;;;;;;;;;;5012550;28;20547;-63
2022/01/20 12:08:21;;;;;;;3.80;1.70;;;;;;;;;;5037420;28;20210;-63
2022/01/20 12:11:12;;;;;;;2.63;1.13;;;;;;;;;;5014444;28;20213;-63
2022/01/20 12:13:55;;;;;;;5.00;1.47;;;;;;;;;;5026395;28;20199;-63
2022/01/20 12:16:24;;;;;;;3.77;1.33;;;;;;;;;;5026487;28;20187;-65
2022/01/20 12:19:11;;;;;;;5.17;1.70;;;;;;;;;;5035209;28;20221;-62
2022/01/20 12:21:52;;;;;;;5.33;1.70;;;;;;;;;;5009650;28;20233;-61
2022/01/20 12:24:22;;;;;;;4.63;1.60;;;;;;;;;;5017675;28;20848;-62
2022/01/20 12:26:53;;;;;;;3.27;1.43;;;;;;;;;;5025117;28;20219;-62
2022/01/20 12:29:33;;;;;;;3.83;1.47;;;;;;;;;;5008180;28;20237;-62
2022/01/20 12:32:02;;;;;;;5.87;1.80;;;;;;;;;;5018834;28;20234;-64
2022/01/20 12:34:34;;;;;;;3.23;1.47;;;;;;;;;;5009435;28;20202;-63
2022/01/20 12:37:03;;;;;;;5.00;1.40;;;;;;;;;;5023362;28;20231;-64
2022/01/20 12:39:39;;;;;;;3.03;1.23;;;;;;;;;;5010457;28;20284;-63
2022/01/20 12:42:10;;;;;;;4.23;1.43;;;;;;;;;;5022935;28;20219;-64
2022/01/20 12:45:01;;;;;;;4.03;1.40;;;;;;;;;;5009989;28;20191;-69
2022/01/20 12:47:33;;;;;;;3.00;1.20;;;;;;;;;;5024904;28;20209;-67
2022/01/20 12:50:05;;;;;;;5.97;1.30;;;;;;;;;;5018688;28;20198;-67
2022/01/20 12:52:45;;;;;;;3.40;1.43;;;;;;;;;;5007487;28;20203;-67
2022/01/20 12:55:14;;;;;;;3.00;1.40;;;;;;;;;;5027473;28;20214;-66
2022/01/20 12:57:48;;;;;;;3.47;1.60;;;;;;;;;;5020757;28;20704;-65
2022/01/20 13:00:21;;;;;;;4.63;1.30;;;;;;;;;;5019468;28;20230;-67
2022/01/20 13:02:53;;;;;;;5.03;1.63;;;;;;;;;;5020769;28;20202;-70
2022/01/20 13:05:27;;;;;;;2.50;1.20;;;;;;;;;;5036859;28;20293;-69
2022/01/20 13:08:00;;;;;;;3.67;1.27;;;;;;;;;;5034088;28;20219;-67
2022/01/20 13:10:35;;;;;;;3.50;1.50;;;;;;;;;;5022523;28;20253;-65
2022/01/20 13:13:05;;;;;;;3.07;1.27;;;;;;;;;;5020736;28;20204;-66
2022/01/20 13:15:35;;;;;;;4.50;1.33;;;;;;;;;;5023384;28;20246;-65
2022/01/20 13:18:13;;;;;;;2.50;1.13;;;;;;;;;;5023116;28;20219;-66
2022/01/20 13:20:59;;;;;;;2.03;1.00;;;;;;;;;;5029093;28;20210;-67
2022/01/20 13:26:09;;;;;;;5.30;1.37;;;;;;;;;;5031426;28;20222;-69
2022/01/20 13:28:40;;;;;;;4.07;1.20;;;;;;;;;;5029200;28;20226;-66
2022/01/20 13:31:26;;;;;;;5.43;1.37;;;;;;;;;;5027257;28;20210;-68
2022/01/20 13:33:59;;;;;;;7.17;1.40;;;;;;;;;;5024498;28;20207;-66
2022/01/20 13:36:37;;;;;;;3.73;1.53;;;;;;;;;;5034999;28;20203;-66
2022/01/20 13:39:09;;;;;;;3.93;1.20;;;;;;;;;;5026338;28;20195;-66
2022/01/20 13:41:43;;;;;;;4.60;1.23;;;;;;;;;;5018266;28;20221;-65
2022/01/20 13:47:10;;;;;;;4.57;1.60;;;;;;;;;;5028646;28;20226;-67
2022/01/20 13:49:49;;;;;;;3.80;1.87;;;;;;;;;;5042966;28;20207;-67
2022/01/20 13:52:20;;;;;;;2.87;1.17;;;;;;;;;;5012906;28;20210;-67
2022/01/20 13:54:54;;;;;;;4.50;1.37;;;;;;;;;;5029838;28;20211;-67
2022/01/20 13:57:41;;;;;;;3.67;1.37;;;;;;;;;;5008788;28;20253;-67
2022/01/20 14:00:13;;;;;;;3.43;1.30;;;;;;;;;;5021299;28;20199;-64
2022/01/20 14:02:50;;;;;;;4.70;1.10;;;;;;;;;;5024735;28;20203;-67
2022/01/20 14:05:30;;;;;;;4.07;1.27;;;;;;;;;;5023420;28;20304;-67
2022/01/20 14:08:04;;;;;;;3.37;1.30;;;;;;;;;;5002665;28;20194;-68
2022/01/20 14:10:33;;;;;;;2.50;1.20;;;;;;;;;;5025995;28;20798;-68
2022/01/20 14:13:05;;;;;;;2.20;1.20;;;;;;;;;;5025504;28;20257;-67
2022/01/20 14:15:36;;;;;;;4.43;1.57;;;;;;;;;;5004047;28;20267;-66
2022/01/20 14:18:07;;;;;;;2.90;1.00;;;;;;;;;;5021601;28;20222;-68
2022/01/20 14:20:38;;;;;;;7.17;1.60;;;;;;;;;;5007548;28;20218;-67
2022/01/20 14:23:07;;;;;;;2.60;1.00;;;;;;;;;;4991541;28;20206;-66
2022/01/20 14:25:37;;;;;;;2.93;1.10;;;;;;;;;;5022083;28;20215;-67
2022/01/20 14:28:07;;;;;;;3.17;1.23;;;;;;;;;;5027537;28;20234;-65
2022/01/20 14:30:36;;;;;;;4.93;1.27;;;;;;;;;;5027469;28;20218;-65
2022/01/20 14:33:08;;;;;;;2.93;1.20;;;;;;;;;;5028374;28;20648;-66
2022/01/20 14:35:51;;;;;;;2.07;0.80;;;;;;;;;;5027501;28;20222;-66
2022/01/20 14:38:24;;;;;;;2.57;1.20;;;;;;;;;;5028909;28;20611;-68
2022/01/20 14:41:05;;;;;;;3.83;1.20;;;;;;;;;;5028632;28;20210;-67
2022/01/20 14:43:43;;;;;;;3.47;1.20;;;;;;;;;;5022729;28;20203;-67
2022/01/20 14:46:18;;;;;;;3.63;1.07;;;;;;;;;;5021977;28;20691;-68
2022/01/20 14:48:48;;;;;;;5.30;1.00;;;;;;;;;;5026982;28;20191;-67
2022/01/20 14:51:17;;;;;;;4.50;1.20;;;;;;;;;;5027574;28;20202;-68
2022/01/20 14:53:48;;;;;;;4.83;1.40;;;;;;;;;;5023925;28;20203;-69
2022/01/20 14:56:19;;;;;;;1.97;0.97;;;;;;;;;;5028624;28;20213;-67
2022/01/20 14:58:52;;;;;;;3.37;0.90;;;;;;;;;;5024968;28;20219;-67
2022/01/20 15:01:37;;;;;;;2.17;1.20;;;;;;;;;;5028812;28;20288;-67
2022/01/20 15:04:09;;;;;;;2.97;1.37;;;;;;;;;;5028716;28;20604;-66
2022/01/20 15:06:44;;;;;;;4.40;1.17;;;;;;;;;;5018609;28;20235;-68
2022/01/20 15:09:15;;;;;;;1.43;1.00;;;;;;;;;;5009879;28;20338;-67
2022/01/20 15:11:45;;;;;;;2.40;1.10;;;;;;;;;;5025740;28;20221;-67
2022/01/20 15:14:22;;;;;;;4.10;1.03;;;;;;;;;;5041310;28;20207;-65
2022/01/20 15:16:56;;;;;;;2.33;1.00;;;;;;;;;;5027484;28;20196;-67
2022/01/20 15:19:38;;;;;;;3.40;1.33;;;;;;;;;;5025402;28;20277;-67
2022/01/20 15:22:09;;;;;;;3.27;1.13;;;;;;;;;;5035075;28;20217;-67
2022/01/20 15:24:38;;;;;;;2.47;1.10;;;;;;;;;;5026770;28;20225;-65
2022/01/20 15:27:07;;;;;;;2.10;1.00;;;;;;;;;;5030595;28;20608;-66
2022/01/20 15:29:38;;;;;;;1.63;0.90;;;;;;;;;;5025923;28;20262;-66
2022/01/20 15:32:29;;;;;;;1.70;0.90;;;;;;;;;;5025379;28;20647;-65
2022/01/20 15:35:23;;;;;;;1.90;1.07;;;;;;;;;;5024848;28;20227;-64
2022/01/20 15:37:52;;;;;;;3.20;1.37;;;;;;;;;;5020579;28;20210;-68
2022/01/20 15:40:33;;;;;;;1.90;1.00;;;;;;;;;;5004537;28;20214;-63
2022/01/20 15:43:03;;;;;;;2.17;1.13;;;;;;;;;;5014597;28;20221;-63
2022/01/20 15:45:32;;;;;;;4.90;1.30;;;;;;;;;;5023487;28;20278;-62
2022/01/20 15:48:00;;;;;;;2.63;1.43;;;;;;;;;;5021737;28;20217;-63
2022/01/20 15:50:33;;;;;;;2.77;1.00;;;;;;;;;;5025585;28;20202;-64
2022/01/20 15:53:07;;;;;;;2.63;0.80;;;;;;;;;;5024213;28;20195;-65
2022/01/20 15:55:39;;;;;;;2.20;1.13;;;;;;;;;;5021046;28;20257;-65
2022/01/20 15:58:10;;;;;;;1.70;0.90;;;;;;;;;;5023980;28;20192;-65
2022/01/20 16:00:40;;;;;;;2.90;1.00;;;;;;;;;;5031499;28;20215;-65
2022/01/20 16:03:10;;;;;;;2.27;1.10;;;;;;;;;;5026947;28;20629;-65
2022/01/20 16:05:44;;;;;;;1.87;0.90;;;;;;;;;;5020698;28;20245;-65
2022/01/20 16:08:14;;;;;;;2.30;0.97;;;;;;;;;;5022946;28;20575;-65
2022/01/20 16:11:04;;;;;;;1.50;0.80;;;;;;;;;;5030768;28;20225;-64
2022/01/20 16:13:37;;;;;;;2.23;1.10;;;;;;;;;;5026168;28;20617;-63
2022/01/20 16:16:07;;;;;;;2.37;0.70;;;;;;;;;;5035573;28;20211;-64
2022/01/20 16:18:49;;;;;;;2.23;0.90;;;;;;;;;;5021289;28;20295;-64
2022/01/20 16:21:20;;;;;;;1.53;0.80;;;;;;;;;;5008408;28;20195;-64
2022/01/20 16:23:56;;;;;;;1.57;0.90;;;;;;;;;;5021574;28;20207;-63
2022/01/20 16:26:28;;;;;;;2.13;1.10;;;;;;;;;;5018598;28;20219;-64
2022/01/20 16:29:01;;;;;;;2.47;0.63;;;;;;;;;;5017230;28;20261;-64
2022/01/20 16:31:30;;;;;;;1.60;0.90;;;;;;;;;;4987019;28;20220;-63
2022/01/20 16:34:03;;;;;;;2.20;1.00;;;;;;;;;;4990174;28;20743;-64
2022/01/20 16:36:37;;;;;;;2.93;1.27;;;;;;;;;;5005590;28;20217;-63